Time;durP1;ratioP1;P1;durP2;ratioP2;P2;SDS_P1;SDS_P2;PMS_P1;PMS_P2;Temp;Humidity;BMP_temperature;BMP_pressure;BME280_temperature;BME280_humidity;BME280_pressure;Samples;Min_cycle;Max_cycle;Signal;HPM_P1;HPM_P2
2023/05/26 04:34:51;;;;;;;;;19.00;15.25;;;;;;;;5440385;22;11454;-77
2023/05/26 04:37:16;;;;;;;;;13.00;12.25;;;;;;;;6375182;22;11454;-83
2023/05/26 04:39:41;;;;;;;;;19.00;17.00;;;;;;;;6375410;22;8797;-79
2023/05/26 04:42:07;;;;;;;;;14.00;12.75;;;;;;;;6375591;22;8755;-77
2023/05/26 04:44:32;;;;;;;;;12.50;11.00;;;;;;;;6375328;22;8751;-76
2023/05/26 04:47:00;;;;;;;;;16.75;14.75;;;;;;;;6380586;22;8728;-85
2023/05/26 04:49:25;;;;;;;;;13.25;11.75;;;;;;;;6379254;22;8712;-84
2023/05/26 04:51:55;;;;;;;;;13.75;13.75;;;;;;;;6376332;22;11388;-89
2023/05/26 04:54:21;;;;;;;;;20.00;19.25;;;;;;;;6349017;22;8766;-79
2023/05/26 04:56:46;;;;;;;;;14.50;13.00;;;;;;;;6378854;22;11447;-85
2023/05/26 04:59:12;;;;;;;;;20.25;17.50;;;;;;;;6381813;22;11523;-84
2023/05/26 05:01:38;;;;;;;;;16.25;15.50;;;;;;;;6382702;22;8736;-83
2023/05/26 05:04:03;;;;;;;;;22.25;17.50;;;;;;;;6376893;22;8739;-84
2023/05/26 05:06:28;;;;;;;;;18.25;13.50;;;;;;;;6376627;22;8752;-80
2023/05/26 05:08:53;;;;;;;;;12.50;11.75;;;;;;;;6375830;22;8768;-76
2023/05/26 05:11:19;;;;;;;;;13.25;12.25;;;;;;;;6376192;22;8768;-81
2023/05/26 05:13:44;;;;;;;;;27.75;18.00;;;;;;;;6376020;22;8790;-79
2023/05/26 05:16:09;;;;;;;;;26.25;19.00;;;;;;;;6374216;22;8887;-79
2023/05/26 05:18:35;;;;;;;;;15.00;13.00;;;;;;;;6375105;22;8759;-80
2023/05/26 05:21:00;;;;;;;;;7.75;7.75;;;;;;;;6375475;22;8829;-89
2023/05/26 05:23:25;;;;;;;;;16.50;15.75;;;;;;;;6376339;22;8755;-87
2023/05/26 05:25:52;;;;;;;;;19.00;17.25;;;;;;;;6377946;22;8786;-87
2023/05/26 05:28:17;;;;;;;;;19.00;14.50;;;;;;;;6379588;22;8741;-86
2023/05/26 05:30:42;;;;;;;;;21.50;19.00;;;;;;;;6376772;22;11559;-83
2023/05/26 05:33:08;;;;;;;;;17.25;14.25;;;;;;;;6375129;22;8787;-85
2023/05/26 05:35:33;;;;;;;;;24.50;19.50;;;;;;;;6378468;22;8760;-83
2023/05/26 05:37:58;;;;;;;;;26.00;20.00;;;;;;;;6376608;22;8774;-85
2023/05/26 05:40:23;;;;;;;;;22.25;15.50;;;;;;;;6377411;22;9481;-82
2023/05/26 05:42:48;;;;;;;;;18.75;15.75;;;;;;;;6375786;22;8771;-75
2023/05/26 05:45:13;;;;;;;;;18.50;17.75;;;;;;;;6374780;22;8768;-71
2023/05/26 05:47:39;;;;;;;;;19.00;13.50;;;;;;;;6347063;22;8864;-74
2023/05/26 05:50:04;;;;;;;;;25.75;22.00;;;;;;;;6375732;22;8868;-78
2023/05/26 05:52:30;;;;;;;;;23.50;18.00;;;;;;;;6375838;22;8748;-75
2023/05/26 05:54:55;;;;;;;;;18.00;15.50;;;;;;;;6375667;22;8858;-77
2023/05/26 05:57:20;;;;;;;;;28.25;20.75;;;;;;;;6375585;22;8771;-75
2023/05/26 05:59:45;;;;;;;;;23.50;19.00;;;;;;;;6375978;22;8740;-74
2023/05/26 06:02:11;;;;;;;;;20.50;18.50;;;;;;;;6375421;22;8858;-73
2023/05/26 06:04:36;;;;;;;;;18.00;12.50;;;;;;;;6375579;22;8740;-72
2023/05/26 06:07:01;;;;;;;;;23.00;18.75;;;;;;;;6376284;22;8821;-73
2023/05/26 06:09:27;;;;;;;;;15.75;14.00;;;;;;;;6375868;22;8752;-73
2023/05/26 06:11:52;;;;;;;;;13.50;11.25;;;;;;;;6375732;22;8771;-77
2023/05/26 06:14:17;;;;;;;;;20.75;18.25;;;;;;;;6375317;22;8756;-81
2023/05/26 06:16:43;;;;;;;;;21.25;17.00;;;;;;;;6377412;22;8760;-83
2023/05/26 06:19:08;;;;;;;;;19.50;16.75;;;;;;;;6376760;22;8838;-77
2023/05/26 06:21:33;;;;;;;;;19.00;13.25;;;;;;;;6347212;22;8774;-81
2023/05/26 06:23:58;;;;;;;;;26.75;18.75;;;;;;;;6377209;22;8806;-77
2023/05/26 06:26:24;;;;;;;;;19.75;15.50;;;;;;;;6375545;22;8744;-84
2023/05/26 06:28:49;;;;;;;;;23.50;19.75;;;;;;;;6375666;22;8783;-68
2023/05/26 06:31:15;;;;;;;;;15.50;15.50;;;;;;;;6346732;22;8791;-69
2023/05/26 06:33:40;;;;;;;;;17.75;13.75;;;;;;;;6375520;22;8732;-69
2023/05/26 06:36:05;;;;;;;;;19.25;15.00;;;;;;;;6374842;22;8771;-69
2023/05/26 06:38:30;;;;;;;;;18.50;14.25;;;;;;;;6375085;22;8764;-69
2023/05/26 06:40:55;;;;;;;;;26.50;18.75;;;;;;;;6375820;22;8795;-69
2023/05/26 06:43:21;;;;;;;;;20.25;16.50;;;;;;;;6375185;22;8736;-69
2023/05/26 06:45:46;;;;;;;;;20.75;17.00;;;;;;;;6375515;22;8842;-69
2023/05/26 06:48:11;;;;;;;;;21.75;17.00;;;;;;;;6375752;22;8775;-69
2023/05/26 06:50:36;;;;;;;;;22.25;14.00;;;;;;;;6375136;22;8767;-69
2023/05/26 06:53:01;;;;;;;;;24.75;20.00;;;;;;;;6375644;22;8759;-70
2023/05/26 06:55:27;;;;;;;;;21.75;18.75;;;;;;;;6375590;22;8877;-69
2023/05/26 06:57:52;;;;;;;;;25.00;21.25;;;;;;;;6375799;22;8798;-69
2023/05/26 07:00:17;;;;;;;;;20.75;16.00;;;;;;;;6375834;22;8768;-69
2023/05/26 07:02:42;;;;;;;;;20.75;16.25;;;;;;;;6374913;22;8756;-69
2023/05/26 07:05:08;;;;;;;;;18.25;15.50;;;;;;;;6375499;22;8860;-69
2023/05/26 07:07:33;;;;;;;;;18.25;16.00;;;;;;;;6375622;22;8832;-69
2023/05/26 07:09:59;;;;;;;;;17.25;17.25;;;;;;;;6375181;22;8803;-68
2023/05/26 07:12:24;;;;;;;;;22.25;18.50;;;;;;;;6375364;22;8763;-68
2023/05/26 07:14:49;;;;;;;;;19.25;16.50;;;;;;;;6375209;22;8760;-68
2023/05/26 07:17:15;;;;;;;;;20.25;18.25;;;;;;;;6375598;22;8739;-68
2023/05/26 07:19:40;;;;;;;;;15.50;14.00;;;;;;;;6375222;22;8796;-69
2023/05/26 07:22:05;;;;;;;;;19.00;14.50;;;;;;;;6375062;22;8912;-69
2023/05/26 07:24:30;;;;;;;;;18.75;12.25;;;;;;;;6375364;22;8747;-69
2023/05/26 07:26:55;;;;;;;;;24.25;18.25;;;;;;;;6375257;22;8751;-69
2023/05/26 07:29:21;;;;;;;;;24.50;20.00;;;;;;;;6375201;22;8747;-79
2023/05/26 07:31:46;;;;;;;;;19.00;16.25;;;;;;;;6375448;22;9449;-78
2023/05/26 07:34:11;;;;;;;;;15.50;15.25;;;;;;;;6374555;22;8840;-78
2023/05/26 07:36:36;;;;;;;;;18.00;16.50;;;;;;;;6375165;22;8768;-77
2023/05/26 07:39:02;;;;;;;;;20.50;17.00;;;;;;;;6375542;22;8786;-78
2023/05/26 07:41:27;;;;;;;;;21.00;18.75;;;;;;;;6377155;22;8755;-83
2023/05/26 07:43:52;;;;;;;;;17.50;16.25;;;;;;;;6377064;22;9518;-77
2023/05/26 07:46:17;;;;;;;;;17.00;15.25;;;;;;;;6377240;22;8779;-79
2023/05/26 07:48:42;;;;;;;;;24.00;22.25;;;;;;;;6377655;22;8878;-78
2023/05/26 07:51:08;;;;;;;;;31.50;29.75;;;;;;;;6380505;22;8787;-79
2023/05/26 07:53:34;;;;;;;;;27.25;20.75;;;;;;;;6378545;22;8759;-78
2023/05/26 07:55:59;;;;;;;;;35.25;31.25;;;;;;;;6377373;22;8716;-78
2023/05/26 07:58:25;;;;;;;;;27.00;22.75;;;;;;;;6376927;22;11500;-78
2023/05/26 08:00:50;;;;;;;;;16.50;16.50;;;;;;;;6378966;22;8763;-79
2023/05/26 08:03:15;;;;;;;;;14.25;11.75;;;;;;;;6352225;22;8764;-78
2023/05/26 08:05:42;;;;;;;;;20.00;12.00;;;;;;;;6376986;22;8759;-79
2023/05/26 08:08:07;;;;;;;;;17.75;17.00;;;;;;;;6375975;22;9465;-78
2023/05/26 08:10:32;;;;;;;;;42.50;34.50;;;;;;;;6376196;22;11449;-78
2023/05/26 08:12:57;;;;;;;;;16.25;14.50;;;;;;;;6376147;22;8918;-79
2023/05/26 08:15:24;;;;;;;;;20.75;16.50;;;;;;;;6376640;22;8752;-79
2023/05/26 08:17:49;;;;;;;;;16.25;13.25;;;;;;;;6376044;22;8766;-79
2023/05/26 08:20:15;;;;;;;;;12.50;12.50;;;;;;;;6347801;22;12145;-80
2023/05/26 08:22:40;;;;;;;;;23.25;15.50;;;;;;;;6376102;22;8752;-78
2023/05/26 08:25:05;;;;;;;;;12.00;12.00;;;;;;;;6376813;22;9916;-78
2023/05/26 08:27:30;;;;;;;;;17.50;16.75;;;;;;;;6347518;22;8832;-76
2023/05/26 08:29:55;;;;;;;;;43.00;33.50;;;;;;;;6376454;22;8752;-77
2023/05/26 08:32:21;;;;;;;;;23.50;17.75;;;;;;;;6375594;22;8748;-76
2023/05/26 08:34:46;;;;;;;;;0.00;0.00;;;;;;;;6375418;22;8771;-78
2023/05/26 08:37:13;;;;;;;;;22.25;16.25;;;;;;;;6376435;22;8760;-77
2023/05/26 08:39:39;;;;;;;;;22.00;19.00;;;;;;;;6377205;22;8801;-78
2023/05/26 08:42:12;;;;;;;;;19.50;17.00;;;;;;;;6379576;22;11372;-79
2023/05/26 08:44:38;;;;;;;;;26.00;23.50;;;;;;;;6378131;22;11462;-75
2023/05/26 08:47:03;;;;;;;;;18.00;17.00;;;;;;;;6379235;22;11376;-78
2023/05/26 08:49:36;;;;;;;;;19.75;18.50;;;;;;;;6379399;22;11478;-79
2023/05/26 08:52:06;;;;;;;;;18.00;15.50;;;;;;;;6377159;22;9554;-79
2023/05/26 08:54:31;;;;;;;;;20.50;15.00;;;;;;;;6375988;22;11316;-79
2023/05/26 08:56:57;;;;;;;;;9.00;8.75;;;;;;;;6375707;22;11365;-79
2023/05/26 08:59:23;;;;;;;;;22.00;17.75;;;;;;;;6376001;22;8759;-76
2023/05/26 09:01:48;;;;;;;;;46.00;39.75;;;;;;;;6376045;22;8740;-78
2023/05/26 09:04:13;;;;;;;;;24.75;23.25;;;;;;;;6376020;22;9520;-78
2023/05/26 09:06:42;;;;;;;;;22.75;20.00;;;;;;;;6347442;22;8768;-77
2023/05/26 09:09:08;;;;;;;;;15.25;13.00;;;;;;;;6376163;22;8796;-79
2023/05/26 09:11:39;;;;;;;;;15.75;12.50;;;;;;;;6375633;22;11405;-78
2023/05/26 09:14:04;;;;;;;;;22.50;19.00;;;;;;;;6376674;22;8758;-78
2023/05/26 09:16:29;;;;;;;;;24.00;18.25;;;;;;;;6376134;22;11427;-78
2023/05/26 09:18:58;;;;;;;;;22.00;18.00;;;;;;;;6376155;22;9575;-78
2023/05/26 09:21:25;;;;;;;;;22.75;21.75;;;;;;;;6376404;22;8747;-78
2023/05/26 09:23:56;;;;;;;;;15.50;14.00;;;;;;;;6377615;22;11414;-77
2023/05/26 09:26:26;;;;;;;;;20.25;16.75;;;;;;;;6377703;22;12190;-78
2023/05/26 09:28:52;;;;;;;;;19.75;17.00;;;;;;;;6375607;22;11363;-78
2023/05/26 09:31:17;;;;;;;;;18.75;16.25;;;;;;;;6375212;22;11386;-78
2023/05/26 09:33:46;;;;;;;;;21.50;20.50;;;;;;;;6377634;22;11423;-78
2023/05/26 09:36:12;;;;;;;;;15.75;13.25;;;;;;;;6378301;22;8728;-79
2023/05/26 09:38:37;;;;;;;;;23.25;18.00;;;;;;;;6376274;22;12099;-79
2023/05/26 09:41:02;;;;;;;;;22.50;17.50;;;;;;;;6375933;22;8747;-78
2023/05/26 09:43:27;;;;;;;;;27.50;21.00;;;;;;;;6376124;22;8776;-78
2023/05/26 09:45:53;;;;;;;;;22.00;20.75;;;;;;;;6347327;22;9075;-78
2023/05/26 09:48:18;;;;;;;;;16.75;15.00;;;;;;;;6376373;22;8768;-79
2023/05/26 09:50:43;;;;;;;;;16.75;16.00;;;;;;;;6375904;22;8760;-79
2023/05/26 09:53:09;;;;;;;;;26.25;20.50;;;;;;;;6375996;22;8779;-79
2023/05/26 09:55:36;;;;;;;;;22.50;18.25;;;;;;;;6375518;22;8740;-78
2023/05/26 09:58:08;;;;;;;;;20.25;18.00;;;;;;;;6375602;22;11451;-79
2023/05/26 10:00:34;;;;;;;;;19.50;17.50;;;;;;;;6375644;22;11367;-79
2023/05/26 10:03:03;;;;;;;;;28.00;26.25;;;;;;;;6375236;22;11357;-80
2023/05/26 10:05:28;;;;;;;;;18.00;14.75;;;;;;;;6375946;22;11440;-79
2023/05/26 10:07:53;;;;;;;;;14.00;11.75;;;;;;;;6376462;22;11375;-79
2023/05/26 10:10:19;;;;;;;;;20.50;18.25;;;;;;;;6351373;22;8822;-80
2023/05/26 10:12:44;;;;;;;;;19.00;15.75;;;;;;;;6350213;22;8779;-79
2023/05/26 10:15:10;;;;;;;;;21.75;19.00;;;;;;;;6376545;22;8864;-80
2023/05/26 10:17:35;;;;;;;;;19.75;16.00;;;;;;;;6351197;22;8862;-80
2023/05/26 10:20:01;;;;;;;;;20.75;17.50;;;;;;;;6378912;22;9527;-81
2023/05/26 10:22:35;;;;;;;;;17.50;16.50;;;;;;;;6379958;22;8742;-81
2023/05/26 10:25:08;;;;;;;;;20.25;18.25;;;;;;;;6377851;22;8732;-79
2023/05/26 10:27:41;;;;;;;;;10.50;10.50;;;;;;;;6347482;22;11392;-75
2023/05/26 10:30:10;;;;;;;;;26.75;24.75;;;;;;;;6375536;22;11067;-74
2023/05/26 10:32:41;;;;;;;;;24.75;21.00;;;;;;;;6375237;22;11368;-74
2023/05/26 10:35:22;;;;;;;;;19.50;18.25;;;;;;;;6374324;22;11460;-73
2023/05/26 10:37:53;;;;;;;;;13.75;11.25;;;;;;;;6375052;22;11182;-73
2023/05/26 10:40:39;;;;;;;;;21.00;17.50;;;;;;;;6375204;22;11458;-79
2023/05/26 10:43:11;;;;;;;;;22.25;19.00;;;;;;;;6375490;22;10985;-77
2023/05/26 10:45:42;;;;;;;;;22.50;18.75;;;;;;;;6375209;22;11387;-75
2023/05/26 10:48:10;;;;;;;;;12.25;11.25;;;;;;;;6375787;22;11118;-75
2023/05/26 10:50:54;;;;;;;;;18.50;17.75;;;;;;;;6375176;22;10807;-75
2023/05/26 10:53:21;;;;;;;;;19.75;18.25;;;;;;;;6375767;22;11391;-75
2023/05/26 10:55:54;;;;;;;;;16.25;14.50;;;;;;;;6375451;22;11356;-75
2023/05/26 10:58:29;;;;;;;;;16.75;14.00;;;;;;;;6376296;22;11090;-74
2023/05/26 11:00:54;;;;;;;;;18.50;16.75;;;;;;;;6375130;22;11076;-74
2023/05/26 11:03:40;;;;;;;;;23.50;18.00;;;;;;;;6375377;22;11255;-73
2023/05/26 11:06:06;;;;;;;;;14.25;12.75;;;;;;;;6374645;22;8728;-74
2023/05/26 11:08:52;;;;;;;;;19.75;17.50;;;;;;;;6375820;22;11063;-74
2023/05/26 11:11:27;;;;;;;;;16.50;12.00;;;;;;;;6374971;22;8897;-74
2023/05/26 11:13:58;;;;;;;;;18.75;17.00;;;;;;;;6375981;22;11157;-74
2023/05/26 11:16:25;;;;;;;;;18.75;16.75;;;;;;;;6376875;22;12167;-73
2023/05/26 11:18:51;;;;;;;;;24.00;19.50;;;;;;;;6348031;22;11374;-74
2023/05/26 11:21:24;;;;;;;;;15.75;15.00;;;;;;;;6376134;22;11389;-74
2023/05/26 11:23:51;;;;;;;;;20.50;18.00;;;;;;;;6376261;22;11020;-74
2023/05/26 11:26:16;;;;;;;;;15.75;15.75;;;;;;;;6376352;22;11448;-74
2023/05/26 11:28:42;;;;;;;;;19.25;16.50;;;;;;;;6376568;22;11759;-74
2023/05/26 11:31:12;;;;;;;;;26.25;19.00;;;;;;;;6347677;22;9617;-73
2023/05/26 11:33:38;;;;;;;;;16.50;14.25;;;;;;;;6376153;22;11206;-74
2023/05/26 11:36:07;;;;;;;;;15.50;15.25;;;;;;;;6375616;22;11360;-75
2023/05/26 11:38:32;;;;;;;;;18.50;14.75;;;;;;;;6376835;22;11086;-74
2023/05/26 11:40:57;;;;;;;;;20.75;16.25;;;;;;;;6348101;22;11183;-74
2023/05/26 11:43:23;;;;;;;;;11.50;7.00;;;;;;;;6376828;22;8736;-76
2023/05/26 11:45:52;;;;;;;;;17.50;15.00;;;;;;;;6376568;22;8786;-76
2023/05/26 11:48:17;;;;;;;;;19.25;14.25;;;;;;;;6376059;22;8736;-74
2023/05/26 11:50:42;;;;;;;;;15.50;14.25;;;;;;;;6375561;22;10908;-75
2023/05/26 11:53:07;;;;;;;;;19.75;16.50;;;;;;;;6376706;22;8820;-74
2023/05/26 11:55:33;;;;;;;;;19.50;18.50;;;;;;;;6376315;22;8773;-77
2023/05/26 11:57:58;;;;;;;;;19.75;18.50;;;;;;;;6376501;22;9500;-76
2023/05/26 12:00:24;;;;;;;;;22.00;20.25;;;;;;;;6347642;22;8787;-76
2023/05/26 12:02:49;;;;;;;;;17.75;12.00;;;;;;;;6375852;22;9461;-77
2023/05/26 12:05:28;;;;;;;;;13.75;13.75;;;;;;;;6376278;22;10944;-81
2023/05/26 12:08:03;;;;;;;;;18.50;16.50;;;;;;;;6376337;22;8834;-79
2023/05/26 12:10:30;;;;;;;;;17.00;13.50;;;;;;;;6375741;22;11002;-79
2023/05/26 12:12:55;;;;;;;;;14.00;13.00;;;;;;;;6346923;22;10944;-80
2023/05/26 12:15:21;;;;;;;;;15.75;15.75;;;;;;;;6375436;22;11580;-78
2023/05/26 12:17:46;;;;;;;;;14.75;13.00;;;;;;;;6373022;22;8744;-80
2023/05/26 12:20:16;;;;;;;;;14.00;12.50;;;;;;;;6374198;22;8839;-79
2023/05/26 12:22:41;;;;;;;;;18.50;16.75;;;;;;;;6376081;22;8708;-80
2023/05/26 12:25:07;;;;;;;;;15.75;14.50;;;;;;;;6376002;22;10994;-79
2023/05/26 12:27:39;;;;;;;;;14.75;14.75;;;;;;;;6376534;22;8764;-79
2023/05/26 12:30:28;;;;;;;;;22.25;17.50;;;;;;;;6377280;22;8731;-78
2023/05/26 12:32:53;;;;;;;;;19.50;15.75;;;;;;;;6355209;22;10989;-80
2023/05/26 12:35:18;;;;;;;;;14.00;12.00;;;;;;;;6376439;22;11438;-81
2023/05/26 12:37:44;;;;;;;;;17.00;15.00;;;;;;;;6377985;22;8744;-80
2023/05/26 12:40:10;;;;;;;;;18.50;16.75;;;;;;;;6377054;22;8744;-79
2023/05/26 12:42:35;;;;;;;;;16.00;12.00;;;;;;;;6377039;22;8748;-72
2023/05/26 12:45:00;;;;;;;;;12.75;9.75;;;;;;;;6372537;22;9986;-76
2023/05/26 12:47:28;;;;;;;;;13.75;12.00;;;;;;;;6374703;22;8764;-75
2023/05/26 12:49:54;;;;;;;;;13.25;11.25;;;;;;;;6375438;22;9336;-76
2023/05/26 12:52:19;;;;;;;;;14.00;14.00;;;;;;;;6375355;22;10898;-74
2023/05/26 12:54:44;;;;;;;;;12.00;10.75;;;;;;;;6375671;22;9579;-76
2023/05/26 12:57:09;;;;;;;;;14.00;13.00;;;;;;;;6375106;22;8856;-75
2023/05/26 12:59:36;;;;;;;;;12.50;12.00;;;;;;;;6376129;22;8748;-75
2023/05/26 13:02:02;;;;;;;;;13.50;11.75;;;;;;;;6375194;22;8751;-75
2023/05/26 13:04:27;;;;;;;;;15.00;13.75;;;;;;;;6375078;22;12223;-75
2023/05/26 13:06:53;;;;;;;;;14.00;12.50;;;;;;;;6344243;22;8838;-72
2023/05/26 13:09:28;;;;;;;;;16.75;14.50;;;;;;;;6330877;22;8736;-74
2023/05/26 13:11:54;;;;;;;;;13.50;11.75;;;;;;;;6368076;22;8771;-72
2023/05/26 13:14:19;;;;;;;;;18.00;15.25;;;;;;;;6365860;22;11020;-71
2023/05/26 13:16:44;;;;;;;;;15.25;12.50;;;;;;;;6367793;22;8752;-72
2023/05/26 13:19:10;;;;;;;;;13.00;12.50;;;;;;;;6368224;22;8842;-73
2023/05/26 13:21:35;;;;;;;;;12.25;12.25;;;;;;;;6367829;22;8840;-71
2023/05/26 13:24:01;;;;;;;;;15.00;13.00;;;;;;;;6366986;22;8751;-72
2023/05/26 13:26:26;;;;;;;;;11.75;10.50;;;;;;;;6339332;22;8844;-73
2023/05/26 13:28:51;;;;;;;;;16.00;15.00;;;;;;;;6372960;22;8783;-73
2023/05/26 13:31:17;;;;;;;;;14.75;14.75;;;;;;;;6375666;22;8787;-73
2023/05/26 13:33:43;;;;;;;;;13.25;10.50;;;;;;;;6375864;22;10104;-72
2023/05/26 13:36:08;;;;;;;;;14.25;12.25;;;;;;;;6375672;22;8802;-73
2023/05/26 13:38:33;;;;;;;;;14.50;13.25;;;;;;;;6375596;22;8776;-73
2023/05/26 13:40:59;;;;;;;;;8.25;8.25;;;;;;;;6375440;22;8878;-72
2023/05/26 13:43:25;;;;;;;;;11.75;11.75;;;;;;;;6375420;22;10887;-75
2023/05/26 13:45:50;;;;;;;;;13.50;11.75;;;;;;;;6375340;22;8736;-74
2023/05/26 13:48:15;;;;;;;;;14.00;12.00;;;;;;;;6375740;22;8744;-72
2023/05/26 13:50:40;;;;;;;;;14.50;11.75;;;;;;;;6375385;22;8771;-74
2023/05/26 13:53:06;;;;;;;;;12.50;12.50;;;;;;;;6375355;22;9535;-76
2023/05/26 13:55:31;;;;;;;;;11.25;11.25;;;;;;;;6374641;22;8744;-74
2023/05/26 13:57:57;;;;;;;;;13.50;10.00;;;;;;;;6375733;22;8845;-74
2023/05/26 14:00:22;;;;;;;;;10.75;10.75;;;;;;;;6375314;22;8859;-76
2023/05/26 14:02:49;;;;;;;;;12.75;11.50;;;;;;;;6375877;22;9821;-75
2023/05/26 14:05:14;;;;;;;;;14.50;13.50;;;;;;;;6376090;22;8728;-76
2023/05/26 14:07:40;;;;;;;;;12.50;12.50;;;;;;;;6376659;22;11151;-77
2023/05/26 14:10:05;;;;;;;;;14.00;14.00;;;;;;;;6374578;22;8744;-75
2023/05/26 14:12:31;;;;;;;;;17.00;14.00;;;;;;;;6375400;22;8913;-75
2023/05/26 14:14:56;;;;;;;;;15.00;14.25;;;;;;;;6346888;22;9992;-76
2023/05/26 14:17:22;;;;;;;;;13.25;12.00;;;;;;;;6375684;22;8752;-77
2023/05/26 14:19:47;;;;;;;;;11.75;9.75;;;;;;;;6375978;22;9503;-76
2023/05/26 14:22:12;;;;;;;;;12.00;11.00;;;;;;;;6375126;22;8763;-76
2023/05/26 14:24:38;;;;;;;;;9.50;9.50;;;;;;;;6375302;22;8833;-76
2023/05/26 14:27:03;;;;;;;;;7.25;6.00;;;;;;;;6375201;22;8759;-76
2023/05/26 14:29:28;;;;;;;;;12.75;12.75;;;;;;;;6375070;22;8870;-78
2023/05/26 14:31:53;;;;;;;;;13.75;11.75;;;;;;;;6375122;22;8767;-80
2023/05/26 14:34:19;;;;;;;;;10.75;8.00;;;;;;;;6375374;22;8795;-79
2023/05/26 14:36:44;;;;;;;;;10.00;9.25;;;;;;;;6374963;22;8760;-77
2023/05/26 14:39:11;;;;;;;;;11.50;11.50;;;;;;;;6375191;22;8744;-78
2023/05/26 14:41:36;;;;;;;;;13.50;9.25;;;;;;;;6375026;22;8720;-79
2023/05/26 14:44:01;;;;;;;;;13.25;10.50;;;;;;;;6375292;22;10776;-74
2023/05/26 14:46:26;;;;;;;;;13.75;13.75;;;;;;;;6375310;22;8740;-72
2023/05/26 14:48:51;;;;;;;;;12.25;10.50;;;;;;;;6375268;22;8732;-72
2023/05/26 14:51:17;;;;;;;;;12.75;11.00;;;;;;;;6375708;22;9526;-71
2023/05/26 14:53:42;;;;;;;;;15.25;13.75;;;;;;;;6375086;22;8760;-73
2023/05/26 14:56:08;;;;;;;;;11.75;11.50;;;;;;;;6375323;22;8740;-73
2023/05/26 14:58:33;;;;;;;;;13.25;11.50;;;;;;;;6375151;22;8755;-73
2023/05/26 15:00:58;;;;;;;;;12.00;9.75;;;;;;;;6372878;22;8775;-71
2023/05/26 15:03:24;;;;;;;;;12.75;12.75;;;;;;;;6375328;22;8764;-73
2023/05/26 15:05:50;;;;;;;;;18.50;12.00;;;;;;;;6375793;22;8772;-71
2023/05/26 15:08:15;;;;;;;;;13.50;11.75;;;;;;;;6346339;22;8819;-70
2023/05/26 15:10:40;;;;;;;;;11.00;11.00;;;;;;;;6374802;22;11757;-72
2023/05/26 15:13:06;;;;;;;;;10.00;10.00;;;;;;;;6374979;22;8767;-69
2023/05/26 15:15:37;;;;;;;;;11.25;8.50;;;;;;;;6375448;22;8748;-71
2023/05/26 15:18:02;;;;;;;;;15.50;10.75;;;;;;;;6368279;22;8712;-69
2023/05/26 15:20:27;;;;;;;;;9.25;9.00;;;;;;;;6375063;22;11438;-68
2023/05/26 15:22:52;;;;;;;;;13.50;11.50;;;;;;;;6375111;22;8740;-73
2023/05/26 15:25:18;;;;;;;;;14.00;12.25;;;;;;;;6374672;22;8751;-68
2023/05/26 15:27:43;;;;;;;;;14.25;13.25;;;;;;;;6374915;22;8790;-71
2023/05/26 15:30:09;;;;;;;;;13.25;10.50;;;;;;;;6374789;22;8854;-71
2023/05/26 15:32:34;;;;;;;;;4.75;3.75;;;;;;;;6374617;22;8836;-71
2023/05/26 15:34:59;;;;;;;;;15.75;11.75;;;;;;;;6374562;22;8888;-71
2023/05/26 15:37:24;;;;;;;;;15.00;14.00;;;;;;;;6373470;22;8747;-70
2023/05/26 15:39:50;;;;;;;;;7.75;5.50;;;;;;;;6374888;22;8779;-69
2023/05/26 15:42:15;;;;;;;;;10.50;10.50;;;;;;;;6373985;22;8861;-69
2023/05/26 15:44:40;;;;;;;;;14.50;9.75;;;;;;;;6374902;22;8794;-74
2023/05/26 15:47:06;;;;;;;;;6.00;6.00;;;;;;;;6375215;22;8756;-73
2023/05/26 15:49:32;;;;;;;;;13.25;10.75;;;;;;;;6375226;22;8775;-74
2023/05/26 15:51:57;;;;;;;;;11.50;10.75;;;;;;;;6373697;22;8768;-73
2023/05/26 15:54:22;;;;;;;;;10.75;8.75;;;;;;;;6374347;22;9079;-72
2023/05/26 15:56:47;;;;;;;;;9.25;7.50;;;;;;;;6374158;22;8845;-71
2023/05/26 15:59:13;;;;;;;;;10.25;10.25;;;;;;;;6374074;22;8767;-71
2023/05/26 16:01:38;;;;;;;;;12.50;10.00;;;;;;;;6375771;22;8846;-72
2023/05/26 16:04:04;;;;;;;;;11.25;10.50;;;;;;;;6375695;22;8845;-70
2023/05/26 16:06:29;;;;;;;;;8.25;8.00;;;;;;;;6375718;22;9534;-71
2023/05/26 16:08:54;;;;;;;;;7.00;6.25;;;;;;;;6375545;22;8788;-72
2023/05/26 16:11:20;;;;;;;;;8.75;7.00;;;;;;;;6375755;22;10151;-81
2023/05/26 16:13:46;;;;;;;;;10.00;8.00;;;;;;;;6347259;22;8760;-77
2023/05/26 16:16:11;;;;;;;;;8.75;8.75;;;;;;;;6376262;22;8724;-76
2023/05/26 16:18:36;;;;;;;;;9.50;6.25;;;;;;;;6375838;22;8776;-77
2023/05/26 16:21:02;;;;;;;;;4.25;4.25;;;;;;;;6373508;22;8882;-76
2023/05/26 16:23:27;;;;;;;;;8.50;8.25;;;;;;;;6374715;22;8806;-77
2023/05/26 16:25:52;;;;;;;;;9.75;9.75;;;;;;;;6374946;22;8847;-79
2023/05/26 16:28:18;;;;;;;;;12.50;11.25;;;;;;;;6375449;22;8850;-80
2023/05/26 16:30:44;;;;;;;;;11.25;9.00;;;;;;;;6375069;22;8787;-84
2023/05/26 16:33:09;;;;;;;;;13.25;11.00;;;;;;;;6375041;22;8743;-80
2023/05/26 16:35:41;;;;;;;;;7.75;6.50;;;;;;;;6374404;22;8868;-77
2023/05/26 16:38:07;;;;;;;;;7.50;7.50;;;;;;;;6376139;22;8712;-79
2023/05/26 16:40:33;;;;;;;;;12.25;11.25;;;;;;;;6346453;22;11345;-70
2023/05/26 16:42:58;;;;;;;;;13.00;10.50;;;;;;;;6375574;22;8728;-76
2023/05/26 16:45:24;;;;;;;;;9.75;9.75;;;;;;;;6375519;22;10694;-71
2023/05/26 16:47:49;;;;;;;;;10.75;9.75;;;;;;;;6376043;22;8838;-72
2023/05/26 16:50:14;;;;;;;;;7.75;7.00;;;;;;;;6376338;22;8838;-72
2023/05/26 16:52:39;;;;;;;;;12.25;9.75;;;;;;;;6375410;22;8763;-71
2023/05/26 16:55:06;;;;;;;;;11.25;10.50;;;;;;;;6375717;22;8875;-73
2023/05/26 16:57:32;;;;;;;;;7.00;7.00;;;;;;;;6375653;22;8724;-72
2023/05/26 16:59:57;;;;;;;;;10.50;9.00;;;;;;;;6347329;22;11475;-73
2023/05/26 17:02:22;;;;;;;;;10.50;10.25;;;;;;;;6375392;22;8755;-72
2023/05/26 17:04:47;;;;;;;;;12.50;12.50;;;;;;;;6373282;22;8774;-73
2023/05/26 17:07:12;;;;;;;;;13.25;9.25;;;;;;;;6373743;22;8743;-74
2023/05/26 17:09:37;;;;;;;;;11.00;11.00;;;;;;;;6375962;22;8859;-73
2023/05/26 17:12:03;;;;;;;;;13.00;7.00;;;;;;;;6347553;22;8814;-73
2023/05/26 17:14:32;;;;;;;;;14.50;12.00;;;;;;;;6376527;22;8751;-73
2023/05/26 17:16:57;;;;;;;;;13.50;12.50;;;;;;;;6375650;22;9527;-73
2023/05/26 17:19:22;;;;;;;;;10.50;8.50;;;;;;;;6375519;22;10685;-74
2023/05/26 17:21:47;;;;;;;;;17.75;14.75;;;;;;;;6347407;22;8781;-73
2023/05/26 17:24:13;;;;;;;;;9.25;8.25;;;;;;;;6374845;22;8740;-73
2023/05/26 17:26:38;;;;;;;;;7.50;7.25;;;;;;;;6376443;22;9539;-73
2023/05/26 17:29:03;;;;;;;;;10.00;10.00;;;;;;;;6376364;22;8839;-73
2023/05/26 17:31:28;;;;;;;;;13.50;11.25;;;;;;;;6375885;22;8874;-73
2023/05/26 17:33:53;;;;;;;;;9.50;8.75;;;;;;;;6375352;22;8751;-73
2023/05/26 17:36:19;;;;;;;;;11.00;9.75;;;;;;;;6376016;22;9468;-75
2023/05/26 17:38:44;;;;;;;;;11.75;11.00;;;;;;;;6375751;22;8823;-74
2023/05/26 17:41:09;;;;;;;;;11.75;11.25;;;;;;;;6375256;22;8743;-75
2023/05/26 17:43:35;;;;;;;;;8.50;7.25;;;;;;;;6375232;22;8728;-75
2023/05/26 17:46:00;;;;;;;;;11.00;11.00;;;;;;;;6375930;22;8850;-74
2023/05/26 17:48:25;;;;;;;;;12.00;10.75;;;;;;;;6375406;22;8819;-74
2023/05/26 17:50:50;;;;;;;;;13.75;12.50;;;;;;;;6375794;22;8794;-75
2023/05/26 17:53:15;;;;;;;;;13.00;10.00;;;;;;;;6371687;22;8744;-74
2023/05/26 17:55:42;;;;;;;;;13.75;11.75;;;;;;;;6375976;22;8908;-75
2023/05/26 17:58:07;;;;;;;;;15.50;12.25;;;;;;;;6375314;22;8730;-79
2023/05/26 18:00:33;;;;;;;;;10.00;9.25;;;;;;;;6350562;22;11046;-78
2023/05/26 18:02:58;;;;;;;;;12.75;7.75;;;;;;;;6347310;22;8774;-78
2023/05/26 18:05:23;;;;;;;;;10.00;8.00;;;;;;;;6375944;22;8861;-77
2023/05/26 18:07:49;;;;;;;;;12.25;10.00;;;;;;;;6375944;22;8747;-78
2023/05/26 18:10:14;;;;;;;;;12.00;9.00;;;;;;;;6375804;22;8774;-76
2023/05/26 18:12:39;;;;;;;;;9.25;8.25;;;;;;;;6347855;22;8905;-76
2023/05/26 18:15:05;;;;;;;;;8.00;6.75;;;;;;;;6375273;22;8747;-74
2023/05/26 18:17:32;;;;;;;;;9.50;9.50;;;;;;;;6346448;22;8780;-74
2023/05/26 18:19:57;;;;;;;;;11.75;8.75;;;;;;;;6374286;22;8724;-73
2023/05/26 18:22:23;;;;;;;;;5.75;4.75;;;;;;;;6374413;22;10716;-73
2023/05/26 18:24:48;;;;;;;;;7.50;5.00;;;;;;;;6374750;22;8759;-72
2023/05/26 18:27:13;;;;;;;;;9.75;8.50;;;;;;;;6375915;22;9485;-74
2023/05/26 18:29:38;;;;;;;;;8.00;7.00;;;;;;;;6347247;22;8858;-75
2023/05/26 18:32:04;;;;;;;;;13.25;11.25;;;;;;;;6375788;22;8776;-81
2023/05/26 18:34:29;;;;;;;;;8.00;6.50;;;;;;;;6375479;22;8756;-76
2023/05/26 18:36:55;;;;;;;;;8.50;7.50;;;;;;;;6375558;22;8763;-74
2023/05/26 18:39:20;;;;;;;;;7.50;7.50;;;;;;;;6375986;22;8732;-73
2023/05/26 18:41:45;;;;;;;;;8.75;7.50;;;;;;;;6347348;22;8789;-75
2023/05/26 18:44:10;;;;;;;;;10.25;9.25;;;;;;;;6375902;22;8747;-74
2023/05/26 18:46:35;;;;;;;;;8.25;7.25;;;;;;;;6376861;22;8794;-74
2023/05/26 18:49:01;;;;;;;;;15.00;10.00;;;;;;;;6377808;22;8751;-75
2023/05/26 18:51:26;;;;;;;;;5.75;5.50;;;;;;;;6376489;22;8810;-73
2023/05/26 18:53:51;;;;;;;;;10.25;8.00;;;;;;;;6376299;22;8732;-81
2023/05/26 18:56:16;;;;;;;;;9.25;8.50;;;;;;;;6375524;22;8760;-76
2023/05/26 18:58:41;;;;;;;;;9.00;7.50;;;;;;;;6377658;22;8786;-82